Time;durP1;ratioP1;P1;durP2;ratioP2;P2;SDS_P1;SDS_P2;PMS_P1;PMS_P2;Temp;Humidity;BMP_temperature;BMP_pressure;BME280_temperature;BME280_humidity;BME280_pressure;Samples;Min_cycle;Max_cycle;Signal;HPM_P1;HPM_P2
2022/02/08 00:01:13;;;;;;;4.35;2.80;;;;;;;;;;4985180;28;20299;-52
2022/02/08 00:03:38;;;;;;;4.65;3.00;;;;;;;;;;4985393;28;20545;-53
2022/02/08 00:06:36;;;;;;;3.97;2.80;;;;;;;;;;4985353;28;20077;-52
2022/02/08 00:09:02;;;;;;;4.60;2.70;;;;;;;;;;4985100;28;20376;-53
2022/02/08 00:11:28;;;;;;;4.38;2.95;;;;;;;;;;4985395;28;20070;-52
2022/02/08 00:13:53;;;;;;;4.68;2.97;;;;;;;;;;4985405;28;20022;-52
2022/02/08 00:16:18;;;;;;;4.00;2.83;;;;;;;;;;4974695;28;20039;-51
2022/02/08 00:18:43;;;;;;;5.07;3.33;;;;;;;;;;4948621;28;20274;-53
2022/02/08 00:21:08;;;;;;;4.07;3.07;;;;;;;;;;4965469;28;20275;-52
2022/02/08 00:23:34;;;;;;;3.70;2.63;;;;;;;;;;4966060;28;20361;-53
2022/02/08 00:25:59;;;;;;;4.47;2.77;;;;;;;;;;4965993;28;20800;-52
2022/02/08 00:28:24;;;;;;;5.03;2.90;;;;;;;;;;4977358;28;21091;-52
2022/02/08 00:30:49;;;;;;;5.80;3.30;;;;;;;;;;4985083;28;20265;-52
2022/02/08 00:33:15;;;;;;;4.30;2.97;;;;;;;;;;4984644;28;20076;-52
2022/02/08 00:35:40;;;;;;;4.82;3.30;;;;;;;;;;4979635;28;20027;-52
2022/02/08 00:38:05;;;;;;;4.80;3.15;;;;;;;;;;4965611;28;20901;-52
2022/02/08 00:40:30;;;;;;;3.88;2.80;;;;;;;;;;4965762;28;20093;-52
2022/02/08 00:42:57;;;;;;;3.92;2.65;;;;;;;;;;4965523;28;20065;-54
2022/02/08 00:45:47;;;;;;;4.70;3.10;;;;;;;;;;4965547;28;20105;-54
2022/02/08 00:48:24;;;;;;;4.60;3.35;;;;;;;;;;4965766;28;20050;-53
2022/02/08 00:50:51;;;;;;;4.20;2.78;;;;;;;;;;4965318;28;20034;-53
2022/02/08 00:53:16;;;;;;;5.75;3.00;;;;;;;;;;4965512;28;20038;-53
2022/02/08 00:55:41;;;;;;;4.07;2.67;;;;;;;;;;4972622;28;20022;-54
2022/02/08 00:58:07;;;;;;;4.10;2.53;;;;;;;;;;4979397;28;20031;-51
2022/02/08 01:00:34;;;;;;;4.17;2.77;;;;;;;;;;4968827;28;20093;-53
2022/02/08 01:02:59;;;;;;;5.65;3.35;;;;;;;;;;4968597;28;20030;-52
2022/02/08 01:05:25;;;;;;;5.03;3.23;;;;;;;;;;4969038;28;20391;-52
2022/02/08 01:07:50;;;;;;;4.68;3.00;;;;;;;;;;4975590;28;20417;-51
2022/02/08 01:10:18;;;;;;;4.77;2.93;;;;;;;;;;4988212;28;20053;-52
2022/02/08 01:12:43;;;;;;;4.80;3.05;;;;;;;;;;4988356;28;20274;-51
2022/02/08 01:15:09;;;;;;;4.82;2.83;;;;;;;;;;4986557;28;20053;-52
2022/02/08 01:17:35;;;;;;;3.97;2.65;;;;;;;;;;4968793;28;20031;-51
2022/02/08 01:20:08;;;;;;;3.90;2.60;;;;;;;;;;4968678;28;20081;-53
2022/02/08 01:22:37;;;;;;;4.18;2.85;;;;;;;;;;4968598;28;20026;-52
2022/02/08 01:25:03;;;;;;;5.07;2.90;;;;;;;;;;4968283;28;20083;-51
2022/02/08 01:27:31;;;;;;;3.90;2.80;;;;;;;;;;4972343;28;20029;-51
2022/02/08 01:29:59;;;;;;;4.20;2.65;;;;;;;;;;4980153;28;20011;-51
2022/02/08 01:35:28;;;;;;;4.55;2.67;;;;;;;;;;4968625;28;20022;-51
2022/02/08 01:40:46;;;;;;;4.27;2.70;;;;;;;;;;4968168;28;20033;-52
2022/02/08 01:48:39;;;;;;;3.88;2.75;;;;;;;;;;4977555;28;20064;-52
2022/02/08 01:50:58;;;;;;;4.80;2.80;;;;;;;;;;4986772;28;20034;-52
2022/02/08 01:53:24;;;;;;;4.20;2.60;;;;;;;;;;4987560;28;20092;-51
2022/02/08 01:55:49;;;;;;;4.20;2.60;;;;;;;;;;4980657;28;20019;-51
2022/02/08 01:58:15;;;;;;;4.25;2.40;;;;;;;;;;4967989;28;20097;-52
2022/02/08 02:00:40;;;;;;;3.97;2.23;;;;;;;;;;4968041;28;20503;-51
2022/02/08 02:03:05;;;;;;;3.93;2.53;;;;;;;;;;4967654;28;20288;-52
2022/02/08 02:05:30;;;;;;;3.93;2.53;;;;;;;;;;4950492;28;20270;-51
2022/02/08 02:07:57;;;;;;;3.78;2.55;;;;;;;;;;4967348;28;20274;-52
2022/02/08 02:10:23;;;;;;;3.92;2.50;;;;;;;;;;4967519;28;20038;-51
2022/02/08 02:12:50;;;;;;;4.30;2.47;;;;;;;;;;4968053;28;20041;-51
2022/02/08 02:15:15;;;;;;;3.55;2.40;;;;;;;;;;4969693;28;20379;-51
2022/02/08 02:17:40;;;;;;;4.20;2.60;;;;;;;;;;4981673;28;20069;-52
2022/02/08 02:20:05;;;;;;;3.93;2.40;;;;;;;;;;4967455;28;20022;-52
2022/02/08 02:22:31;;;;;;;3.95;2.50;;;;;;;;;;4967689;28;20106;-52
2022/02/08 02:24:56;;;;;;;4.30;2.87;;;;;;;;;;4967625;28;20030;-51
2022/02/08 02:27:21;;;;;;;3.80;2.57;;;;;;;;;;4970132;28;20022;-52
2022/02/08 02:29:46;;;;;;;3.27;2.57;;;;;;;;;;4963220;28;20022;-52
2022/02/08 02:32:13;;;;;;;3.53;2.40;;;;;;;;;;4967158;28;20285;-51
2022/02/08 02:34:43;;;;;;;3.38;2.22;;;;;;;;;;4967532;28;20660;-52
2022/02/08 02:37:09;;;;;;;3.28;2.38;;;;;;;;;;4966866;28;20037;-52
2022/02/08 02:39:34;;;;;;;3.37;2.20;;;;;;;;;;4986634;28;20019;-52
2022/02/08 02:41:59;;;;;;;3.10;2.17;;;;;;;;;;4986470;28;20409;-53
2022/02/08 02:44:24;;;;;;;4.30;2.60;;;;;;;;;;4969028;28;20026;-52
2022/02/08 02:46:50;;;;;;;4.75;2.53;;;;;;;;;;4986615;28;20106;-52
2022/02/08 02:49:15;;;;;;;3.85;2.65;;;;;;;;;;4986221;28;20025;-52
2022/02/08 02:51:40;;;;;;;3.13;2.27;;;;;;;;;;4986351;28;20084;-51
2022/02/08 02:54:16;;;;;;;3.30;2.50;;;;;;;;;;4986555;28;20246;-52
2022/02/08 02:56:41;;;;;;;3.75;2.60;;;;;;;;;;4972857;28;20043;-51
2022/02/08 02:59:07;;;;;;;3.15;2.22;;;;;;;;;;4967170;28;20029;-52
2022/02/08 03:01:39;;;;;;;3.22;2.20;;;;;;;;;;4967005;28;20543;-51
2022/02/08 03:04:27;;;;;;;3.60;2.35;;;;;;;;;;4966844;28;20101;-52
2022/02/08 03:20:33;;;;;;;4.68;2.78;;;;;;;;;;4966614;28;20038;-51
2022/02/08 03:22:58;;;;;;;3.30;2.27;;;;;;;;;;4966732;28;20425;-51
2022/02/08 03:25:24;;;;;;;3.43;2.40;;;;;;;;;;4966305;28;20313;-51
2022/02/08 03:27:49;;;;;;;3.85;2.40;;;;;;;;;;4972784;28;20113;-53
2022/02/08 03:30:14;;;;;;;2.77;2.03;;;;;;;;;;4976042;28;20035;-52
2022/02/08 03:32:39;;;;;;;3.60;2.30;;;;;;;;;;4961556;28;20282;-52
2022/02/08 03:35:06;;;;;;;3.67;2.17;;;;;;;;;;4985092;28;20037;-53
2022/02/08 03:37:32;;;;;;;3.85;2.33;;;;;;;;;;4966185;28;20639;-52
2022/02/08 03:40:13;;;;;;;3.88;2.28;;;;;;;;;;4966186;28;20023;-51
2022/02/08 03:42:57;;;;;;;;;;;;;;;;;;4966662;28;20086;-53
2022/02/08 03:45:23;;;;;;;3.47;2.10;;;;;;;;;;4966154;28;20189;-51
2022/02/08 03:47:48;;;;;;;3.28;2.20;;;;;;;;;;4966282;28;20667;-51
2022/02/08 03:50:13;;;;;;;3.07;2.30;;;;;;;;;;4966003;28;20027;-52
2022/02/08 03:52:38;;;;;;;4.07;2.70;;;;;;;;;;4966002;28;20038;-52
2022/02/08 03:55:04;;;;;;;3.77;2.30;;;;;;;;;;4966047;28;20288;-53
2022/02/08 03:57:29;;;;;;;4.03;2.60;;;;;;;;;;4981718;28;20871;-52
2022/02/08 03:59:55;;;;;;;3.38;2.15;;;;;;;;;;4966182;28;20023;-52
2022/02/08 04:05:00;;;;;;;4.88;2.58;;;;;;;;;;4966024;28;20413;-51
2022/02/08 04:07:36;;;;;;;3.88;2.30;;;;;;;;;;4968660;28;20217;-52
2022/02/08 04:10:04;;;;;;;3.75;2.10;;;;;;;;;;4981778;28;20027;-52
2022/02/08 04:13:20;;;;;;;2.83;1.83;;;;;;;;;;4965677;28;20633;-52
2022/02/08 04:15:34;;;;;;;3.20;2.10;;;;;;;;;;4959577;28;20041;-52
2022/02/08 04:41:47;;;;;;;3.17;1.63;;;;;;;;;;4969585;28;20054;-52
2022/02/08 04:49:05;;;;;;;2.63;1.75;;;;;;;;;;4985451;28;20070;-52
2022/02/08 04:51:37;;;;;;;3.60;1.67;;;;;;;;;;4969644;28;20054;-52
2022/02/08 04:54:13;;;;;;;2.33;1.50;;;;;;;;;;4968913;28;20297;-51
2022/02/08 05:01:58;;;;;;;3.07;2.00;;;;;;;;;;4971031;28;20034;-51
2022/02/08 05:26:57;;;;;;;2.92;1.83;;;;;;;;;;4930915;29;20689;-52
2022/02/08 05:47:49;;;;;;;2.20;1.60;;;;;;;;;;4930049;29;20031;-52
2022/02/08 05:55:20;;;;;;;2.63;1.70;;;;;;;;;;4931572;29;20032;-52
2022/02/08 05:57:45;;;;;;;2.90;1.80;;;;;;;;;;4935355;29;20102;-52
2022/02/08 06:00:11;;;;;;;2.67;1.80;;;;;;;;;;4929898;29;20275;-52
2022/02/08 06:02:37;;;;;;;3.63;1.80;;;;;;;;;;4930723;29;20354;-51
2022/02/08 06:05:03;;;;;;;3.95;1.60;;;;;;;;;;4938307;29;20499;-52
2022/02/08 06:07:29;;;;;;;2.60;1.65;;;;;;;;;;4931928;29;20133;-52
2022/02/08 06:09:55;;;;;;;7.07;1.60;;;;;;;;;;4947927;29;20138;-53
2022/02/08 06:12:24;;;;;;;2.80;1.85;;;;;;;;;;4946814;29;20062;-52
2022/02/08 06:14:56;;;;;;;2.55;1.63;;;;;;;;;;4948200;29;20961;-52
2022/02/08 06:17:22;;;;;;;3.47;1.58;;;;;;;;;;4944922;29;20067;-52
2022/02/08 06:19:47;;;;;;;2.58;1.33;;;;;;;;;;4930435;29;20070;-53
2022/02/08 06:22:12;;;;;;;4.90;1.60;;;;;;;;;;4946343;29;20577;-52
2022/02/08 06:24:37;;;;;;;6.93;2.43;;;;;;;;;;4946474;29;20518;-52
2022/02/08 06:27:03;;;;;;;4.25;1.48;;;;;;;;;;4946499;29;20509;-52
2022/02/08 06:29:28;;;;;;;2.83;1.42;;;;;;;;;;4945993;29;20020;-52
2022/02/08 06:31:54;;;;;;;2.23;1.30;;;;;;;;;;4946692;29;20407;-53
2022/02/08 06:34:22;;;;;;;3.08;1.35;;;;;;;;;;4946459;29;20273;-52
2022/02/08 06:36:52;;;;;;;2.30;1.42;;;;;;;;;;4947947;29;20126;-52
2022/02/08 06:39:20;;;;;;;2.20;1.33;;;;;;;;;;4944759;29;20027;-52
2022/02/08 06:41:45;;;;;;;4.78;1.35;;;;;;;;;;4946407;29;20038;-53
2022/02/08 06:44:10;;;;;;;2.80;1.33;;;;;;;;;;4946633;29;20035;-51
2022/02/08 06:46:36;;;;;;;2.57;1.60;;;;;;;;;;4946052;29;20421;-50
2022/02/08 06:49:01;;;;;;;2.30;1.20;;;;;;;;;;4947946;29;20259;-52
2022/02/08 06:51:26;;;;;;;1.77;1.30;;;;;;;;;;4944337;29;23719;-52
2022/02/08 06:53:51;;;;;;;3.53;1.40;;;;;;;;;;4945330;28;20481;-52
2022/02/08 06:56:17;;;;;;;3.15;1.38;;;;;;;;;;4930424;29;20512;-51
2022/02/08 06:58:49;;;;;;;2.97;1.38;;;;;;;;;;4945845;29;20506;-51
2022/02/08 07:01:14;;;;;;;2.78;1.38;;;;;;;;;;4944989;29;20027;-52
2022/02/08 07:03:40;;;;;;;2.40;1.55;;;;;;;;;;4945220;29;20087;-52
2022/02/08 07:06:06;;;;;;;2.05;1.40;;;;;;;;;;4945747;29;20062;-52
2022/02/08 07:08:31;;;;;;;3.42;1.35;;;;;;;;;;4947325;29;20057;-52
2022/02/08 07:10:57;;;;;;;2.20;1.30;;;;;;;;;;4946468;29;20481;-52
2022/02/08 07:13:22;;;;;;;2.50;1.23;;;;;;;;;;4943859;29;20380;-52
2022/02/08 07:15:47;;;;;;;2.50;1.10;;;;;;;;;;4947658;29;20282;-51
2022/02/08 07:18:12;;;;;;;3.73;1.27;;;;;;;;;;4928028;29;20386;-52
2022/02/08 07:20:38;;;;;;;2.80;1.30;;;;;;;;;;4928914;29;20263;-50
2022/02/08 07:23:04;;;;;;;2.80;1.33;;;;;;;;;;4929050;29;20119;-49
2022/02/08 07:25:29;;;;;;;2.22;1.50;;;;;;;;;;4928845;29;20090;-51
2022/02/08 07:27:55;;;;;;;3.05;1.60;;;;;;;;;;4935115;29;20163;-50
2022/02/08 07:30:20;;;;;;;2.63;1.25;;;;;;;;;;4938519;29;20031;-51
2022/02/08 07:32:47;;;;;;;2.63;1.20;;;;;;;;;;4928962;29;20027;-51
2022/02/08 07:38:19;;;;;;;2.25;1.13;;;;;;;;;;4916374;29;20055;-52
2022/02/08 07:43:16;;;;;;;2.70;1.58;;;;;;;;;;4928553;29;20035;-51
2022/02/08 07:45:41;;;;;;;1.85;1.20;;;;;;;;;;4928441;29;20023;-51
2022/02/08 07:48:07;;;;;;;2.43;1.40;;;;;;;;;;4917024;29;20027;-51
2022/02/08 07:50:38;;;;;;;1.77;1.20;;;;;;;;;;4928199;29;20286;-51
2022/02/08 07:53:03;;;;;;;1.73;1.20;;;;;;;;;;4932523;29;20023;-51
2022/02/08 07:55:28;;;;;;;2.07;1.30;;;;;;;;;;4928637;29;20041;-51
2022/02/08 07:57:53;;;;;;;1.93;1.20;;;;;;;;;;4927221;29;20371;-51
2022/02/08 08:00:19;;;;;;;1.83;1.17;;;;;;;;;;4927187;29;20794;-50
2022/02/08 08:02:44;;;;;;;2.10;1.30;;;;;;;;;;4927125;29;20016;-51
2022/02/08 08:05:09;;;;;;;2.08;1.10;;;;;;;;;;4928064;29;20123;-51
2022/02/08 08:07:35;;;;;;;2.43;1.47;;;;;;;;;;4928666;29;20035;-52
2022/02/08 08:10:02;;;;;;;2.00;1.20;;;;;;;;;;4927104;29;20126;-52
2022/02/08 08:12:28;;;;;;;2.42;1.35;;;;;;;;;;4928127;29;20491;-51
2022/02/08 08:14:54;;;;;;;2.00;1.30;;;;;;;;;;4928377;29;20032;-51
2022/02/08 08:19:54;;;;;;;1.65;1.20;;;;;;;;;;4929988;28;20059;-52
2022/02/08 08:22:20;;;;;;;2.17;1.27;;;;;;;;;;4927505;29;20059;-51
2022/02/08 08:24:46;;;;;;;1.85;1.20;;;;;;;;;;4928162;29;20074;-51
2022/02/08 08:27:12;;;;;;;1.83;1.20;;;;;;;;;;4927324;29;20032;-51
2022/02/08 08:29:37;;;;;;;2.35;1.38;;;;;;;;;;4931924;29;20055;-51
2022/02/08 08:32:04;;;;;;;2.10;1.00;;;;;;;;;;4927069;29;20032;-51
2022/02/08 08:34:29;;;;;;;2.15;1.35;;;;;;;;;;4925851;29;20789;-51
2022/02/08 08:36:56;;;;;;;2.25;1.23;;;;;;;;;;4928586;28;20078;-51
2022/02/08 08:39:25;;;;;;;1.75;1.13;;;;;;;;;;4928649;29;20106;-51
2022/02/08 08:42:23;;;;;;;1.67;1.20;;;;;;;;;;4925962;29;20023;-51
2022/02/08 08:52:58;;;;;;;1.80;1.10;;;;;;;;;;4891206;29;20128;-52
2022/02/08 08:55:24;;;;;;;2.50;1.15;;;;;;;;;;4926822;29;20172;-51
2022/02/08 08:57:49;;;;;;;2.17;1.30;;;;;;;;;;4927299;29;20040;-51
2022/02/08 09:00:15;;;;;;;2.37;1.40;;;;;;;;;;4929646;29;20361;-52
2022/02/08 09:02:40;;;;;;;2.42;1.40;;;;;;;;;;4925894;29;20263;-52
2022/02/08 09:05:10;;;;;;;1.98;1.20;;;;;;;;;;4925643;29;20027;-51
2022/02/08 09:07:36;;;;;;;2.10;1.23;;;;;;;;;;4929308;29;20596;-51
2022/02/08 09:10:03;;;;;;;2.92;1.50;;;;;;;;;;4927082;29;20028;-51
2022/02/08 09:15:28;;;;;;;2.65;1.25;;;;;;;;;;4927126;29;20030;-52
2022/02/08 09:26:26;;;;;;;2.15;1.38;;;;;;;;;;4931110;29;20533;-51
2022/02/08 09:28:57;;;;;;;2.15;1.25;;;;;;;;;;4936536;29;20078;-52
2022/02/08 09:31:22;;;;;;;2.55;1.30;;;;;;;;;;4933341;29;20020;-51
2022/02/08 09:33:48;;;;;;;1.60;1.10;;;;;;;;;;4933269;29;20023;-51
2022/02/08 09:36:14;;;;;;;2.53;1.40;;;;;;;;;;4917698;29;20027;-51
2022/02/08 09:38:39;;;;;;;2.50;1.20;;;;;;;;;;4933603;29;20497;-53
2022/02/08 09:41:04;;;;;;;3.50;1.50;;;;;;;;;;4933129;29;20351;-51
2022/02/08 09:43:30;;;;;;;2.60;1.50;;;;;;;;;;4932702;29;20495;-51
2022/02/08 09:45:57;;;;;;;2.08;1.20;;;;;;;;;;4932818;29;20022;-50
2022/02/08 09:48:35;;;;;;;3.00;1.30;;;;;;;;;;4934191;29;20490;-54
2022/02/08 09:51:00;;;;;;;2.20;1.40;;;;;;;;;;4934065;29;20051;-52
2022/02/08 09:53:33;;;;;;;2.53;1.25;;;;;;;;;;4932587;29;20486;-51
2022/02/08 09:55:59;;;;;;;1.70;1.13;;;;;;;;;;4934275;29;20410;-52
2022/02/08 09:58:24;;;;;;;2.25;1.40;;;;;;;;;;4933948;29;20035;-51
2022/02/08 10:00:49;;;;;;;1.77;1.20;;;;;;;;;;4932825;29;20191;-51
2022/02/08 10:03:18;;;;;;;2.57;1.40;;;;;;;;;;4932505;29;20031;-51
2022/02/08 10:05:44;;;;;;;2.47;1.30;;;;;;;;;;4932465;29;22247;-51
2022/02/08 10:08:09;;;;;;;2.13;1.20;;;;;;;;;;4940515;29;20033;-51
2022/02/08 10:10:34;;;;;;;1.70;1.20;;;;;;;;;;4940644;29;20638;-52
2022/02/08 10:13:14;;;;;;;2.58;1.40;;;;;;;;;;4932430;29;20051;-52
2022/02/08 10:23:58;;;;;;;2.35;1.20;;;;;;;;;;4952302;29;20015;-51
2022/02/08 10:26:41;;;;;;;1.98;1.17;;;;;;;;;;4952177;29;20027;-51
2022/02/08 10:29:39;;;;;;;2.95;1.52;;;;;;;;;;4952244;28;20046;-51
2022/02/08 10:32:31;;;;;;;2.28;1.52;;;;;;;;;;4945275;29;20043;-51
2022/02/08 10:37:40;;;;;;;2.53;1.30;;;;;;;;;;4948592;29;20126;-51
2022/02/08 10:40:06;;;;;;;2.92;1.40;;;;;;;;;;4916093;29;20024;-51
2022/02/08 10:42:31;;;;;;;2.88;1.65;;;;;;;;;;4932869;29;20082;-51
2022/02/08 10:44:57;;;;;;;2.58;1.50;;;;;;;;;;4932577;29;20078;-51
2022/02/08 10:47:51;;;;;;;2.63;1.55;;;;;;;;;;4933450;29;20032;-52
2022/02/08 10:50:16;;;;;;;3.53;1.63;;;;;;;;;;4937493;29;20046;-51
2022/02/08 10:52:43;;;;;;;2.25;1.40;;;;;;;;;;4932792;29;20024;-51
2022/02/08 10:55:19;;;;;;;2.55;1.50;;;;;;;;;;4948495;29;20027;-51
2022/02/08 10:58:02;;;;;;;3.10;1.70;;;;;;;;;;4947189;29;20091;-51
2022/02/08 11:00:34;;;;;;;3.17;1.60;;;;;;;;;;4932235;29;20031;-52
2022/02/08 11:03:03;;;;;;;2.63;1.70;;;;;;;;;;4932438;29;20089;-51
2022/02/08 11:05:44;;;;;;;3.72;1.90;;;;;;;;;;4948394;29;20038;-51
2022/02/08 11:14:13;;;;;;;4.22;1.73;;;;;;;;;;4955043;28;20016;-51
2022/02/08 11:19:28;;;;;;;3.35;1.77;;;;;;;;;;4949054;28;20094;-51
2022/02/08 11:25:03;;;;;;;2.87;1.63;;;;;;;;;;4949111;29;20114;-51
2022/02/08 11:27:19;;;;;;;3.50;2.05;;;;;;;;;;4940904;29;20034;-53
2022/02/08 11:30:07;;;;;;;2.92;1.70;;;;;;;;;;4947323;29;20490;-52
2022/02/08 11:54:32;;;;;;;2.92;2.03;;;;;;;;;;4947725;29;20139;-53
2022/02/08 12:02:36;;;;;;;3.17;1.70;;;;;;;;;;4930218;29;20483;-52
2022/02/08 12:07:21;;;;;;;3.88;2.25;;;;;;;;;;4934836;29;20047;-52
2022/02/08 12:10:01;;;;;;;3.47;1.80;;;;;;;;;;4947388;29;20535;-52
2022/02/08 12:48:50;;;;;;;3.08;1.80;;;;;;;;;;4931662;29;20110;-52
2022/02/08 12:56:56;;;;;;;3.25;1.88;;;;;;;;;;4934304;29;20034;-52
2022/02/08 14:02:41;;;;;;;3.50;1.83;;;;;;;;;;4951732;28;20038;-50
2022/02/08 14:07:41;;;;;;;3.05;2.10;;;;;;;;;;4949590;29;20047;-49
2022/02/08 14:16:09;;;;;;;3.15;1.70;;;;;;;;;;4910886;29;20051;-49
2022/02/08 14:18:43;;;;;;;3.67;1.70;;;;;;;;;;4938339;29;20049;-49
2022/02/08 15:08:14;;;;;;;3.67;1.80;;;;;;;;;;4951229;29;20593;-50
2022/02/08 15:10:48;;;;;;;2.78;1.58;;;;;;;;;;4938659;29;20038;-50
2022/02/08 15:13:15;;;;;;;3.22;1.73;;;;;;;;;;4930945;29;20035;-49
2022/02/08 15:18:28;;;;;;;2.40;1.50;;;;;;;;;;4940400;29;20046;-50
2022/02/08 15:20:53;;;;;;;3.65;2.05;;;;;;;;;;4938268;29;20517;-50
2022/02/08 15:23:20;;;;;;;4.27;1.73;;;;;;;;;;4931303;29;20024;-51
2022/02/08 15:25:46;;;;;;;2.55;1.67;;;;;;;;;;4929790;29;20572;-50
2022/02/08 15:28:12;;;;;;;2.72;1.80;;;;;;;;;;4931548;29;20411;-49
2022/02/08 15:30:37;;;;;;;3.07;1.80;;;;;;;;;;4931283;29;20023;-50
2022/02/08 15:33:05;;;;;;;2.30;1.87;;;;;;;;;;4931156;29;20454;-50
2022/02/08 15:35:31;;;;;;;3.05;1.60;;;;;;;;;;4930950;29;20703;-50
2022/02/08 15:37:56;;;;;;;2.83;1.63;;;;;;;;;;4935463;29;20038;-48
2022/02/08 15:40:21;;;;;;;3.43;1.90;;;;;;;;;;4925583;29;20682;-49
2022/02/08 15:42:47;;;;;;;3.50;1.70;;;;;;;;;;4931176;29;20383;-51
2022/02/08 15:45:27;;;;;;;2.67;1.65;;;;;;;;;;4930929;29;20427;-49
2022/02/08 15:47:55;;;;;;;3.25;1.60;;;;;;;;;;4934807;29;20030;-49
2022/02/08 15:50:29;;;;;;;2.88;1.70;;;;;;;;;;4942778;29;20032;-49
2022/02/08 16:00:04;;;;;;;2.70;1.67;;;;;;;;;;4935721;29;20112;-49
2022/02/08 16:01:15;;;;;;;3.15;1.50;;;;;;;;;;4935703;29;20863;-50
2022/02/08 16:09:06;;;;;;;2.90;1.58;;;;;;;;;;4943644;29;20031;-49
2022/02/08 16:11:56;;;;;;;2.35;1.35;;;;;;;;;;4949667;29;20051;-50
2022/02/08 16:19:48;;;;;;;2.57;1.57;;;;;;;;;;4934036;29;20032;-48
2022/02/08 16:22:42;;;;;;;4.00;1.70;;;;;;;;;;4929753;29;20277;-48
2022/02/08 16:25:34;;;;;;;2.55;1.50;;;;;;;;;;4930730;29;20063;-52
2022/02/08 16:33:46;;;;;;;2.65;1.63;;;;;;;;;;4891438;29;20036;-51
2022/02/08 16:53:05;;;;;;;2.47;1.63;;;;;;;;;;4881865;29;20045;-50
2022/02/08 16:55:49;;;;;;;;;;;;;;;;;;4919359;29;20031;-51
2022/02/08 17:01:01;;;;;;;3.38;1.50;;;;;;;;;;4941298;29;20050;-51
2022/02/08 17:03:31;;;;;;;2.72;1.35;;;;;;;;;;4931620;29;20027;-52
2022/02/08 17:05:56;;;;;;;3.03;1.55;;;;;;;;;;4933428;29;20040;-49
2022/02/08 17:08:23;;;;;;;2.80;1.30;;;;;;;;;;4941126;29;20038;-51
2022/02/08 17:10:51;;;;;;;2.58;1.33;;;;;;;;;;4924889;29;20028;-51
2022/02/08 17:14:20;;;;;;;2.78;1.60;;;;;;;;;;4933737;29;20055;-49
2022/02/08 17:47:47;;;;;;;3.37;1.30;;;;;;;;;;4934890;29;20015;-52
2022/02/08 17:50:16;;;;;;;8.00;1.75;;;;;;;;;;4925855;28;20062;-51
2022/02/08 17:52:41;;;;;;;3.03;1.50;;;;;;;;;;4951005;29;20039;-52
2022/02/08 17:55:07;;;;;;;6.90;1.50;;;;;;;;;;4951974;29;20059;-51
2022/02/08 17:57:32;;;;;;;6.53;1.75;;;;;;;;;;4918524;29;20031;-51
2022/02/08 17:59:58;;;;;;;5.50;1.67;;;;;;;;;;4951880;29;20222;-51
2022/02/08 18:02:24;;;;;;;3.63;1.40;;;;;;;;;;4934596;29;20275;-50
2022/02/08 18:04:50;;;;;;;5.75;1.75;;;;;;;;;;4950514;29;20027;-51
2022/02/08 18:07:19;;;;;;;4.20;1.65;;;;;;;;;;4950478;29;20043;-50
2022/02/08 18:09:45;;;;;;;2.80;1.42;;;;;;;;;;4951475;29;20031;-52
2022/02/08 18:12:10;;;;;;;4.28;1.73;;;;;;;;;;4951732;29;20039;-51
2022/02/08 18:14:35;;;;;;;4.68;1.60;;;;;;;;;;4934683;29;20023;-50
2022/02/08 18:17:10;;;;;;;6.37;3.37;;;;;;;;;;4951518;29;20027;-51
2022/02/08 18:19:38;;;;;;;9.70;5.18;;;;;;;;;;4951296;29;20298;-55
2022/02/08 18:57:17;;;;;;;7.32;4.63;;;;;;;;;;4949639;29;20090;-50
2022/02/08 19:16:15;;;;;;;6.32;3.63;;;;;;;;;;4934063;29;20034;-50
2022/02/08 19:19:40;;;;;;;6.57;3.60;;;;;;;;;;4934735;29;20039;-51
2022/02/08 19:23:54;;;;;;;8.53;3.87;;;;;;;;;;4934901;29;20121;-50
2022/02/08 19:26:21;;;;;;;9.10;4.30;;;;;;;;;;4947637;29;20166;-50
2022/02/08 19:28:47;;;;;;;7.78;4.20;;;;;;;;;;4937352;29;20299;-50
2022/02/08 19:31:12;;;;;;;7.55;3.85;;;;;;;;;;4938352;29;20023;-51
2022/02/08 19:33:37;;;;;;;8.32;3.60;;;;;;;;;;4940384;29;20394;-51
2022/02/08 19:36:03;;;;;;;8.70;4.05;;;;;;;;;;4947851;29;20081;-51
2022/02/08 19:38:29;;;;;;;5.85;3.28;;;;;;;;;;4945833;29;20039;-52
2022/02/08 19:40:54;;;;;;;6.45;3.25;;;;;;;;;;4944394;29;20147;-50
2022/02/08 19:43:19;;;;;;;4.97;3.05;;;;;;;;;;4921374;29;20126;-50
2022/02/08 19:45:45;;;;;;;5.63;3.10;;;;;;;;;;4947593;29;20023;-50
2022/02/08 19:48:11;;;;;;;7.05;3.50;;;;;;;;;;4940183;29;20130;-51
2022/02/08 19:50:39;;;;;;;6.45;3.15;;;;;;;;;;4920422;29;20497;-51
2022/02/08 19:53:06;;;;;;;6.82;3.53;;;;;;;;;;4941954;29;20146;-50
2022/02/08 19:58:07;;;;;;;6.32;3.20;;;;;;;;;;4945521;29;20031;-51
2022/02/08 20:00:33;;;;;;;6.47;3.17;;;;;;;;;;4944332;29;20019;-50
2022/02/08 20:03:01;;;;;;;5.45;3.08;;;;;;;;;;4939472;29;20039;-50
2022/02/08 20:05:31;;;;;;;5.53;3.08;;;;;;;;;;4947275;29;20101;-51
2022/02/08 20:07:56;;;;;;;6.03;3.20;;;;;;;;;;4944813;29;20591;-50
2022/02/08 20:10:22;;;;;;;6.03;2.80;;;;;;;;;;4944449;29;20024;-51
2022/02/08 20:12:47;;;;;;;5.55;3.20;;;;;;;;;;4942895;29;20024;-52
2022/02/08 20:15:12;;;;;;;5.20;3.80;;;;;;;;;;4947023;29;20034;-51
2022/02/08 20:17:38;;;;;;;5.10;2.53;;;;;;;;;;4944436;29;20042;-52
2022/02/08 20:20:09;;;;;;;4.63;2.53;;;;;;;;;;4921895;29;20487;-51
2022/02/08 20:22:34;;;;;;;4.50;2.70;;;;;;;;;;4934654;29;20035;-51
2022/02/08 20:25:03;;;;;;;4.40;2.55;;;;;;;;;;4945048;29;20075;-52
2022/02/08 20:27:46;;;;;;;4.72;2.40;;;;;;;;;;4945637;29;20466;-51
2022/02/08 20:30:11;;;;;;;5.45;2.63;;;;;;;;;;4934564;29;20043;-52
2022/02/08 20:32:37;;;;;;;5.80;2.55;;;;;;;;;;4944259;29;20027;-53
2022/02/08 20:35:02;;;;;;;4.83;2.70;;;;;;;;;;4944543;29;20023;-51
2022/02/08 20:37:27;;;;;;;4.78;2.30;;;;;;;;;;4917632;29;20045;-50
2022/02/08 20:39:52;;;;;;;4.30;2.13;;;;;;;;;;4941346;29;20118;-52
2022/02/08 20:42:24;;;;;;;4.77;2.47;;;;;;;;;;4938790;29;20110;-51
2022/02/08 20:44:49;;;;;;;4.78;2.70;;;;;;;;;;4923938;29;20034;-51
2022/02/08 20:47:24;;;;;;;4.88;2.53;;;;;;;;;;4933362;29;20031;-49
2022/02/08 20:49:57;;;;;;;5.05;2.58;;;;;;;;;;4933956;29;20991;-52
2022/02/08 20:52:22;;;;;;;4.97;2.50;;;;;;;;;;4946001;29;20522;-52
2022/02/08 20:54:51;;;;;;;5.33;2.30;;;;;;;;;;4943119;29;20117;-50
2022/02/08 20:57:22;;;;;;;4.83;2.67;;;;;;;;;;4946024;29;20298;-52
2022/02/08 20:59:48;;;;;;;4.60;2.53;;;;;;;;;;4943502;29;20486;-51
2022/02/08 21:02:14;;;;;;;3.97;2.40;;;;;;;;;;4945831;29;20023;-50
2022/02/08 21:04:54;;;;;;;4.78;2.65;;;;;;;;;;4942064;29;20058;-49
2022/02/08 21:07:19;;;;;;;3.85;2.20;;;;;;;;;;4945296;29;20071;-52
2022/02/08 21:09:44;;;;;;;3.25;2.15;;;;;;;;;;4942308;29;20059;-49
2022/02/08 21:12:27;;;;;;;3.80;2.20;;;;;;;;;;4946558;28;20035;-49
2022/02/08 21:14:52;;;;;;;4.63;2.55;;;;;;;;;;4947569;29;20279;-51
2022/02/08 21:17:17;;;;;;;3.73;2.27;;;;;;;;;;4949073;29;20474;-52
2022/02/08 21:19:42;;;;;;;4.70;2.70;;;;;;;;;;4947189;29;20279;-52
2022/02/08 21:22:08;;;;;;;4.03;2.47;;;;;;;;;;4950063;29;20402;-50
2022/02/08 21:24:33;;;;;;;3.80;2.13;;;;;;;;;;4945903;29;20365;-50
2022/02/08 21:27:02;;;;;;;3.60;2.00;;;;;;;;;;4950872;29;20275;-50
2022/02/08 21:47:53;;;;;;;3.57;1.97;;;;;;;;;;4946875;29;20624;-50
2022/02/08 21:52:54;;;;;;;4.60;2.00;;;;;;;;;;4945919;29;20023;-51
2022/02/08 21:55:19;;;;;;;5.05;2.30;;;;;;;;;;4949209;29;20034;-50
2022/02/08 21:57:54;;;;;;;3.30;1.83;;;;;;;;;;4948417;29;20027;-52
2022/02/08 22:00:22;;;;;;;4.22;2.30;;;;;;;;;;4947374;29;20069;-52
2022/02/08 22:02:47;;;;;;;3.67;2.05;;;;;;;;;;4946187;29;20038;-49
2022/02/08 22:05:12;;;;;;;3.28;1.80;;;;;;;;;;4947893;29;20027;-50
2022/02/08 22:07:38;;;;;;;4.00;2.08;;;;;;;;;;4948370;29;20062;-51
2022/02/08 22:10:11;;;;;;;3.67;2.00;;;;;;;;;;4941425;29;20031;-52
2022/02/08 22:21:20;;;;;;;3.95;2.00;;;;;;;;;;4939445;29;20031;-51
2022/02/08 22:34:04;;;;;;;3.10;1.70;;;;;;;;;;4943667;29;20078;-52
2022/02/08 22:36:37;;;;;;;3.28;2.15;;;;;;;;;;4949803;29;20083;-51
2022/02/08 22:39:54;;;;;;;2.72;1.70;;;;;;;;;;4940419;29;20455;-52
2022/02/08 22:42:03;;;;;;;3.17;1.88;;;;;;;;;;4945092;29;20035;-50
2022/02/08 22:44:39;;;;;;;3.08;1.80;;;;;;;;;;4943314;29;20027;-52
2022/02/08 22:47:05;;;;;;;3.70;1.90;;;;;;;;;;4948815;29;20039;-51
2022/02/08 22:49:30;;;;;;;3.55;1.70;;;;;;;;;;4932749;29;20504;-50
2022/02/08 22:51:56;;;;;;;2.90;1.35;;;;;;;;;;4916385;29;20012;-51
2022/02/08 22:54:21;;;;;;;3.33;1.50;;;;;;;;;;4943587;29;20043;-51
2022/02/08 22:56:48;;;;;;;3.23;1.80;;;;;;;;;;4949232;29;20031;-52
2022/02/08 22:59:13;;;;;;;2.97;1.50;;;;;;;;;;4939270;29;20118;-49
2022/02/08 23:01:40;;;;;;;3.30;1.80;;;;;;;;;;4949839;29;20106;-51
2022/02/08 23:04:05;;;;;;;2.20;1.48;;;;;;;;;;4943043;29;20042;-49
2022/02/08 23:06:32;;;;;;;3.25;1.40;;;;;;;;;;4949164;29;20518;-52
2022/02/08 23:08:57;;;;;;;3.00;1.38;;;;;;;;;;4940796;29;20050;-51
2022/02/08 23:13:52;;;;;;;2.90;1.80;;;;;;;;;;4943165;29;20494;-51
2022/02/08 23:38:05;;;;;;;3.08;1.58;;;;;;;;;;4946729;29;20516;-49
2022/02/08 23:40:30;;;;;;;3.45;1.70;;;;;;;;;;4939984;29;20023;-50
2022/02/08 23:42:56;;;;;;;3.03;1.60;;;;;;;;;;4944525;29;20059;-50
2022/02/08 23:45:21;;;;;;;2.67;1.75;;;;;;;;;;4946992;29;20050;-50
2022/02/08 23:47:54;;;;;;;3.40;1.50;;;;;;;;;;4946405;29;20019;-51
2022/02/08 23:50:27;;;;;;;2.50;1.48;;;;;;;;;;4940233;29;20107;-50
2022/02/08 23:53:04;;;;;;;2.35;1.35;;;;;;;;;;4945000;29;20031;-50
2022/02/08 23:55:46;;;;;;;2.78;1.38;;;;;;;;;;4947592;29;20437;-52